createdAt,value
2019-02-15T00:00:31.270Z,0.94
2019-02-15T00:03:04.094Z,0.93
2019-02-15T00:05:34.523Z,0.94
2019-02-15T00:08:08.083Z,0.93
2019-02-15T00:10:38.495Z,0.92
2019-02-15T00:13:13.570Z,0.91
2019-02-15T00:15:41.607Z,0.94
2019-02-15T00:18:40.298Z,0.95
2019-02-15T00:21:15.741Z,0.97
2019-02-15T00:23:46.411Z,0.98
2019-02-15T00:26:16.921Z,1.02
2019-02-15T00:28:47.426Z,1.04
2019-02-15T00:31:21.973Z,1.02
2019-02-15T00:33:52.390Z,0.97
2019-02-15T00:36:23.051Z,0.95
2019-02-15T00:38:53.354Z,0.93
2019-02-15T00:41:23.829Z,0.93
2019-02-15T00:43:54.511Z,0.92
2019-02-15T00:46:34.936Z,0.94
2019-02-15T00:49:07.251Z,0.89
2019-02-15T00:51:52.547Z,0.93
2019-02-15T00:54:31.491Z,0.96
2019-02-15T00:57:28.496Z,0.94
2019-02-15T01:00:13.094Z,0.95
2019-02-15T01:03:01.053Z,0.95
2019-02-15T01:06:06.275Z,0.95
2019-02-15T01:08:44.960Z,0.98
2019-02-15T01:11:22.734Z,0.98
2019-02-15T01:13:53.124Z,1.00
2019-02-15T01:16:23.520Z,1.00
2019-02-15T01:18:54.163Z,1.02
2019-02-15T01:21:24.720Z,1.05
2019-02-15T01:23:55.123Z,1.07
2019-02-15T01:26:33.909Z,1.06
2019-02-15T01:29:35.705Z,1.09
2019-02-15T01:32:24.306Z,1.10
2019-02-15T01:35:23.734Z,1.13
2019-02-15T01:38:05.299Z,1.11
2019-02-15T01:40:47.765Z,1.13
2019-02-15T01:43:39.796Z,1.12
2019-02-15T01:46:19.393Z,1.16
2019-02-15T01:48:50.026Z,1.19
2019-02-15T01:51:20.480Z,1.15
2019-02-15T01:53:50.863Z,1.18
2019-02-15T01:56:21.363Z,1.22
2019-02-15T01:58:51.904Z,1.22
2019-02-15T02:01:24.971Z,1.25
2019-02-15T02:03:55.466Z,1.25
2019-02-15T02:06:26.238Z,1.28
2019-02-15T02:08:56.736Z,1.30
2019-02-15T02:11:27.231Z,1.28
2019-02-15T02:13:57.738Z,1.26
2019-02-15T02:16:28.622Z,1.30
2019-02-15T02:18:59.204Z,1.33
2019-02-15T02:21:29.978Z,1.32
2019-02-15T02:24:00.686Z,1.32
2019-02-15T02:26:31.914Z,1.29
2019-02-15T02:29:02.300Z,1.31
2019-02-15T02:31:32.731Z,1.34
2019-02-15T02:34:04.357Z,1.35
2019-02-15T02:36:53.664Z,1.34
2019-02-15T02:39:25.338Z,1.35
2019-02-15T02:41:55.853Z,1.28
2019-02-15T02:44:26.755Z,1.32
2019-02-15T02:46:57.173Z,1.34
2019-02-15T02:49:27.727Z,1.34
2019-02-15T02:51:58.225Z,1.36
2019-02-15T02:54:28.803Z,1.42
2019-02-15T02:56:59.273Z,1.41
2019-02-15T02:59:29.856Z,1.45
2019-02-15T03:02:00.253Z,1.42
2019-02-15T03:04:30.895Z,1.42
2019-02-15T03:07:01.474Z,1.45
2019-02-15T03:09:31.992Z,1.42
2019-02-15T03:12:02.929Z,1.46
2019-02-15T03:14:33.771Z,1.48
2019-02-15T03:17:04.261Z,1.47
2019-02-15T03:19:34.747Z,1.49
2019-02-15T03:22:05.439Z,1.45
2019-02-15T03:24:36.031Z,1.48
2019-02-15T03:27:06.665Z,1.46
2019-02-15T03:29:37.508Z,1.49
2019-02-15T03:32:08.091Z,1.48
2019-02-15T03:34:38.611Z,1.46
2019-02-15T03:37:43.761Z,1.45
2019-02-15T03:40:25.573Z,1.49
2019-02-15T03:42:55.899Z,1.46
2019-02-15T03:45:26.554Z,1.46
2019-02-15T03:47:57.111Z,1.53
2019-02-15T03:50:27.777Z,1.53
2019-02-15T03:52:58.796Z,1.53
2019-02-15T03:55:30.053Z,1.48
2019-02-15T03:58:00.777Z,1.44
2019-02-15T04:00:32.531Z,1.47
2019-02-15T04:03:03.217Z,1.46
2019-02-15T04:05:34.950Z,1.46
2019-02-15T04:08:05.866Z,1.50
2019-02-15T04:10:36.726Z,1.49
2019-02-15T04:13:07.679Z,1.53
2019-02-15T04:15:38.424Z,1.51
2019-02-15T04:18:09.082Z,1.53
2019-02-15T04:20:39.706Z,1.55
2019-02-15T04:23:12.383Z,1.56
2019-02-15T04:25:42.986Z,1.58
2019-02-15T04:28:13.572Z,1.59
2019-02-15T04:30:43.991Z,1.61
2019-02-15T04:33:14.724Z,1.67
2019-02-15T04:35:45.231Z,1.69
2019-02-15T04:38:16.139Z,1.70
2019-02-15T04:40:46.917Z,1.69
2019-02-15T04:43:17.564Z,1.71
2019-02-15T04:45:48.508Z,1.74
2019-02-15T04:48:20.202Z,1.73
2019-02-15T04:50:51.082Z,1.75
2019-02-15T04:53:22.333Z,1.74
2019-02-15T04:55:53.000Z,1.75
2019-02-15T04:58:23.774Z,1.78
2019-02-15T05:00:54.579Z,1.81
2019-02-15T05:03:25.245Z,1.81
2019-02-15T05:05:56.216Z,1.87
2019-02-15T05:08:27.917Z,1.90
2019-02-15T05:10:58.926Z,1.89
2019-02-15T05:13:29.489Z,1.87
2019-02-15T05:16:00.542Z,1.92
2019-02-15T05:18:31.657Z,1.97
2019-02-15T05:21:02.387Z,2.00
2019-02-15T05:23:33.833Z,1.99
2019-02-15T05:26:04.574Z,2.05
2019-02-15T05:28:35.058Z,2.06
2019-02-15T05:31:06.287Z,2.10
2019-02-15T05:33:37.121Z,2.11
2019-02-15T05:36:07.777Z,2.15
2019-02-15T05:38:41.489Z,2.17
2019-02-15T05:41:11.948Z,2.20
2019-02-15T05:43:42.529Z,2.22
2019-02-15T05:46:14.033Z,2.28
2019-02-15T05:48:44.982Z,2.30
2019-02-15T05:51:15.943Z,2.34
2019-02-15T05:53:47.203Z,2.34
2019-02-15T05:56:17.729Z,2.36
2019-02-15T05:58:49.409Z,2.35
2019-02-15T06:01:22.031Z,2.34
2019-02-15T06:03:52.598Z,2.37
2019-02-15T06:06:23.455Z,2.38
2019-02-15T06:08:54.026Z,2.37
2019-02-15T06:11:24.705Z,2.42
2019-02-15T06:13:57.576Z,2.49
2019-02-15T06:16:28.367Z,2.51
2019-02-15T06:18:59.497Z,2.51
2019-02-15T06:21:30.449Z,2.48
2019-02-15T06:24:01.855Z,2.54
2019-02-15T06:26:32.699Z,2.61
2019-02-15T06:29:03.530Z,2.60
2019-02-15T06:31:34.148Z,2.63
2019-02-15T06:34:06.099Z,2.67
2019-02-15T06:36:36.491Z,2.74
2019-02-15T06:39:14.135Z,2.74
2019-02-15T06:41:44.848Z,2.74
2019-02-15T06:44:16.353Z,2.77
2019-02-15T06:46:47.512Z,2.84
2019-02-15T06:49:18.655Z,2.91
2019-02-15T06:51:49.170Z,2.91
2019-02-15T06:54:20.389Z,2.92
2019-02-15T06:56:51.211Z,2.89
2019-02-15T06:59:44.363Z,2.92
2019-02-15T07:09:59.085Z,2.99
2019-02-15T07:12:30.780Z,3.02
2019-02-15T07:15:01.607Z,3.01
2019-02-15T07:17:32.256Z,2.99
2019-02-15T07:20:03.161Z,2.99
2019-02-15T07:22:33.629Z,2.97
2019-02-15T07:25:05.336Z,2.93
2019-02-15T07:27:36.119Z,2.98
2019-02-15T07:30:08.759Z,3.01
2019-02-15T07:32:39.316Z,3.01
2019-02-15T07:35:10.117Z,3.02
2019-02-15T07:37:40.639Z,3.04
2019-02-15T07:40:11.314Z,3.12
2019-02-15T07:42:42.220Z,3.18
2019-02-15T07:45:12.947Z,3.37
2019-02-15T07:47:43.971Z,3.55
2019-02-15T07:50:14.543Z,3.48
2019-02-15T07:52:46.371Z,3.56
2019-02-15T07:55:17.256Z,3.47
2019-02-15T07:57:48.021Z,3.57
2019-02-15T08:00:19.777Z,3.57
2019-02-15T08:02:50.685Z,3.36
2019-02-15T08:05:23.400Z,3.33
2019-02-15T08:07:54.087Z,3.31
2019-02-15T08:10:25.110Z,3.36
2019-02-15T08:12:55.820Z,3.51
2019-02-15T08:15:35.629Z,3.44
2019-02-15T08:17:59.939Z,3.30
2019-02-15T08:20:30.789Z,3.27
2019-02-15T08:23:01.689Z,3.36
2019-02-15T08:25:32.419Z,3.47
2019-02-15T08:28:03.505Z,3.53
2019-02-15T08:30:34.277Z,3.61
2019-02-15T08:33:04.969Z,3.67
2019-02-15T08:35:35.682Z,3.82
2019-02-15T08:38:06.607Z,3.85
2019-02-15T08:40:37.563Z,3.85
2019-02-15T08:43:08.351Z,3.89
2019-02-15T08:45:38.994Z,3.82
2019-02-15T08:48:09.825Z,3.81
2019-02-15T08:50:40.761Z,3.94
2019-02-15T08:53:11.561Z,3.98
2019-02-15T08:55:42.412Z,4.01
2019-02-15T08:58:13.231Z,3.95
2019-02-15T09:00:44.108Z,3.79
2019-02-15T09:03:14.961Z,3.86
2019-02-15T09:05:46.076Z,3.93
2019-02-15T09:08:16.977Z,4.02
2019-02-15T09:10:48.823Z,4.09
2019-02-15T09:13:19.291Z,4.09
2019-02-15T09:15:50.375Z,4.11
2019-02-15T09:18:20.867Z,4.15
2019-02-15T09:20:51.416Z,4.17
2019-02-15T09:23:22.054Z,4.14
2019-02-15T09:25:52.902Z,4.18
2019-02-15T09:28:32.740Z,4.26
2019-02-15T09:31:03.432Z,4.26
2019-02-15T09:33:34.963Z,4.30
2019-02-15T09:36:05.697Z,4.34
2019-02-15T09:38:36.593Z,4.29
2019-02-15T09:41:07.316Z,4.27
2019-02-15T09:43:38.027Z,4.23
2019-02-15T09:46:09.518Z,4.15
2019-02-15T09:48:40.229Z,4.14
2019-02-15T09:51:11.513Z,4.19
2019-02-15T09:53:42.350Z,4.16
2019-02-15T09:56:13.031Z,4.24
2019-02-15T09:58:43.835Z,4.38
2019-02-15T10:01:14.496Z,4.44
2019-02-15T10:03:45.061Z,4.20
2019-02-15T10:06:15.651Z,4.20
2019-02-15T10:08:46.844Z,4.25
2019-02-15T10:11:17.655Z,4.20
2019-02-15T10:13:48.705Z,4.29
2019-02-15T10:16:28.333Z,4.28
2019-02-15T10:18:52.118Z,4.21
2019-02-15T10:21:24.324Z,4.16
2019-02-15T10:23:55.009Z,4.15
2019-02-15T10:26:26.007Z,4.07
2019-02-15T10:28:57.142Z,3.81
2019-02-15T10:31:28.769Z,3.79
2019-02-15T10:33:59.742Z,3.95
2019-02-15T10:36:30.785Z,3.97
2019-02-15T10:39:02.428Z,3.94
2019-02-15T10:41:36.760Z,3.95
2019-02-15T10:44:07.825Z,3.97
2019-02-15T10:46:38.500Z,4.03
2019-02-15T10:49:09.438Z,3.94
2019-02-15T10:51:40.038Z,3.85
2019-02-15T10:54:10.992Z,3.92
2019-02-15T10:56:42.765Z,3.98
2019-02-15T10:59:14.372Z,4.00
2019-02-15T11:01:45.057Z,3.93
2019-02-15T11:04:17.231Z,4.03
2019-02-15T11:06:49.094Z,4.00
2019-02-15T11:09:19.735Z,4.08
2019-02-15T11:11:50.657Z,4.17
2019-02-15T11:14:21.760Z,4.22
2019-02-15T11:16:52.738Z,4.35
2019-02-15T11:19:23.535Z,4.40
2019-02-15T11:21:54.261Z,4.38
2019-02-15T11:24:25.181Z,4.34
2019-02-15T11:26:56.013Z,4.36
2019-02-15T11:29:28.130Z,4.42
2019-02-15T11:32:01.289Z,4.36
2019-02-15T11:34:32.252Z,4.49
2019-02-15T11:37:03.164Z,4.49
2019-02-15T11:39:34.099Z,4.60
2019-02-15T11:42:04.979Z,4.49
2019-02-15T11:44:35.619Z,4.26
2019-02-15T11:47:06.487Z,4.25
2019-02-15T11:49:37.328Z,4.09
2019-02-15T11:52:08.511Z,4.23
2019-02-15T11:54:39.033Z,4.33
2019-02-15T11:57:09.454Z,4.40
2019-02-15T11:59:40.598Z,4.51
2019-02-15T12:02:11.392Z,4.49
2019-02-15T12:04:43.199Z,4.59
2019-02-15T12:07:14.565Z,4.63
2019-02-15T12:09:45.375Z,4.65
2019-02-15T12:12:16.182Z,4.63
2019-02-15T12:14:46.957Z,4.77
2019-02-15T12:17:20.746Z,4.83
2019-02-15T12:19:51.173Z,4.88
2019-02-15T12:22:21.862Z,4.94
2019-02-15T12:24:52.958Z,5.04
2019-02-15T12:27:23.469Z,4.98
2019-02-15T12:29:55.906Z,4.86
2019-02-15T12:32:26.679Z,4.89
2019-02-15T12:34:57.395Z,4.86
2019-02-15T12:37:28.149Z,4.87
2019-02-15T12:39:59.177Z,4.92
2019-02-15T12:42:30.257Z,4.90
2019-02-15T12:45:01.090Z,4.90
2019-02-15T12:47:31.775Z,4.77
2019-02-15T12:50:02.840Z,4.69
2019-02-15T12:52:35.243Z,4.76
2019-02-15T12:55:06.029Z,4.70
2019-02-15T12:57:37.130Z,4.77
2019-02-15T13:00:10.724Z,4.81
2019-02-15T13:02:41.664Z,4.80
2019-02-15T13:05:14.187Z,4.87
2019-02-15T13:07:45.232Z,4.90
2019-02-15T13:10:21.511Z,4.77
2019-02-15T13:12:52.715Z,4.71
2019-02-15T13:15:23.304Z,4.78
2019-02-15T13:17:54.183Z,4.64
2019-02-15T13:20:25.020Z,4.72
2019-02-15T13:22:56.075Z,4.79
2019-02-15T13:25:34.918Z,4.81
2019-02-15T13:28:12.736Z,4.97
2019-02-15T13:30:43.410Z,4.86
2019-02-15T13:33:14.219Z,4.89
2019-02-15T13:35:45.195Z,4.93
2019-02-15T13:38:15.755Z,4.88
2019-02-15T13:40:47.055Z,4.94
2019-02-15T13:43:17.958Z,4.92
2019-02-15T13:45:48.645Z,4.85
2019-02-15T13:48:19.359Z,4.67
2019-02-15T13:50:50.446Z,4.68
2019-02-15T13:53:22.094Z,4.66
2019-02-15T13:55:52.964Z,4.64
2019-02-15T13:58:24.364Z,4.57
2019-02-15T14:00:55.067Z,4.62
2019-02-15T14:03:27.916Z,4.58
2019-02-15T14:05:58.799Z,4.58
2019-02-15T14:08:30.324Z,4.49
2019-02-15T14:11:01.289Z,4.37
2019-02-15T14:13:32.959Z,4.27
2019-02-15T14:16:04.929Z,4.41
2019-02-15T14:18:35.843Z,4.47
2019-02-15T14:21:07.118Z,4.47
2019-02-15T14:23:37.832Z,4.40
2019-02-15T14:26:08.981Z,4.48
2019-02-15T14:28:41.319Z,4.52
2019-02-15T14:31:11.811Z,4.54
2019-02-15T14:33:42.749Z,4.57
2019-02-15T14:36:13.523Z,4.62
2019-02-15T14:38:44.421Z,4.60
2019-02-15T14:41:16.401Z,4.63
2019-02-15T14:43:47.924Z,4.54
2019-02-15T14:46:18.715Z,4.50
2019-02-15T14:48:49.456Z,4.54
2019-02-15T14:51:20.449Z,4.50
2019-02-15T14:53:51.329Z,4.27
2019-02-15T14:56:22.004Z,4.15
2019-02-15T14:58:52.971Z,4.01
2019-02-15T15:01:23.996Z,3.78
2019-02-15T15:03:55.331Z,3.74
2019-02-15T15:06:26.146Z,3.74
2019-02-15T15:08:59.675Z,3.67
2019-02-15T15:11:30.579Z,3.60
2019-02-15T15:14:01.519Z,3.54
2019-02-15T15:16:32.483Z,3.54
2019-02-15T15:19:03.732Z,3.50
2019-02-15T15:21:35.133Z,3.45
2019-02-15T15:24:05.904Z,3.44
2019-02-15T15:26:37.060Z,3.44
2019-02-15T15:29:07.964Z,3.42
2019-02-15T15:31:39.378Z,3.41
2019-02-15T15:34:19.656Z,3.37
2019-02-15T15:36:53.446Z,3.35
2019-02-15T15:39:24.313Z,3.33
2019-02-15T15:41:57.525Z,3.37
2019-02-15T15:44:28.118Z,3.44
2019-02-15T15:46:59.001Z,3.55
2019-02-15T15:49:29.946Z,3.65
2019-02-15T15:52:00.751Z,3.66
2019-02-15T15:54:31.452Z,3.71
2019-02-15T15:57:05.271Z,3.88
2019-02-15T15:59:36.093Z,3.95
2019-02-15T16:02:09.507Z,3.99
2019-02-15T16:04:40.254Z,4.07
2019-02-15T16:07:11.171Z,4.20
2019-02-15T16:09:41.665Z,4.30
2019-02-15T16:12:18.999Z,4.36
2019-02-15T16:14:53.410Z,4.44
2019-02-15T16:17:30.930Z,4.37
2019-02-15T16:20:01.868Z,4.40
2019-02-15T16:22:32.480Z,4.38
2019-02-15T16:25:06.399Z,4.44
2019-02-15T16:27:38.043Z,4.49
2019-02-15T16:30:10.099Z,4.50
2019-02-15T16:32:40.839Z,4.60
2019-02-15T16:35:13.233Z,4.60
2019-02-15T16:38:18.837Z,4.59
2019-02-15T16:40:49.731Z,4.60
2019-02-15T16:43:20.891Z,4.57
2019-02-15T16:45:52.362Z,4.60
2019-02-15T16:48:23.577Z,4.67
2019-02-15T16:50:54.548Z,4.66
2019-02-15T16:53:25.290Z,4.62
2019-02-15T16:55:56.438Z,4.62
2019-02-15T16:58:27.123Z,4.62
2019-02-15T17:00:58.149Z,4.56
2019-02-15T17:03:29.046Z,4.54
2019-02-15T17:05:59.906Z,4.52
2019-02-15T17:08:30.639Z,4.47
2019-02-15T17:11:01.470Z,4.48
2019-02-15T17:13:34.614Z,4.52
2019-02-15T17:16:05.179Z,4.54
2019-02-15T17:18:35.903Z,4.53
2019-02-15T17:21:06.775Z,4.53
2019-02-15T17:23:37.539Z,4.48
2019-02-15T17:26:08.110Z,4.50
2019-02-15T17:28:38.843Z,4.55
2019-02-15T17:31:09.688Z,4.43
2019-02-15T17:33:40.244Z,4.35
2019-02-15T17:36:12.195Z,4.34
2019-02-15T17:38:43.095Z,4.32
2019-02-15T17:41:13.956Z,4.28
2019-02-15T17:43:44.806Z,4.34
2019-02-15T17:46:15.635Z,4.35
2019-02-15T17:48:46.676Z,4.38
2019-02-15T17:51:18.035Z,4.42
2019-02-15T17:53:48.953Z,4.38
2019-02-15T17:56:20.405Z,4.33
2019-02-15T17:58:51.650Z,4.36
2019-02-15T18:01:22.418Z,4.39
2019-02-15T18:03:53.388Z,4.43
2019-02-15T18:06:26.998Z,4.41
2019-02-15T18:08:58.116Z,4.40
2019-02-15T18:11:28.674Z,4.42
2019-02-15T18:13:59.613Z,4.48
2019-02-15T18:16:30.490Z,4.48
2019-02-15T18:19:09.644Z,4.53
2019-02-15T18:21:33.864Z,4.58
2019-02-15T18:24:05.502Z,4.55
2019-02-15T18:26:36.864Z,4.54
2019-02-15T18:29:07.771Z,4.57
2019-02-15T18:31:38.480Z,4.48
2019-02-15T18:34:11.993Z,4.47
2019-02-15T18:36:43.397Z,4.53
2019-02-15T18:39:16.039Z,4.55
2019-02-15T18:41:47.045Z,4.54
2019-02-15T18:44:17.940Z,4.50
2019-02-15T18:46:48.636Z,4.47
2019-02-15T18:49:19.782Z,4.42
2019-02-15T18:51:54.407Z,4.44
2019-02-15T18:54:25.548Z,4.42
2019-02-15T18:56:56.047Z,4.25
2019-02-15T18:59:26.655Z,4.16
2019-02-15T19:02:00.804Z,4.08
2019-02-15T19:04:31.750Z,3.94
2019-02-15T19:07:09.381Z,3.74
2019-02-15T19:09:40.780Z,3.71
2019-02-15T19:12:11.669Z,3.71
2019-02-15T19:14:42.261Z,3.72
2019-02-15T19:17:13.013Z,3.66
2019-02-15T19:19:44.304Z,3.64
2019-02-15T19:22:14.988Z,3.57
2019-02-15T19:24:49.322Z,3.57
2019-02-15T19:27:23.489Z,3.60
2019-02-15T19:29:58.428Z,3.57
2019-02-15T19:32:29.559Z,3.55
2019-02-15T19:34:59.937Z,3.55
2019-02-15T19:37:31.327Z,3.54
2019-02-15T19:40:02.720Z,3.51
2019-02-15T19:42:33.832Z,3.52
2019-02-15T19:45:05.560Z,3.52
2019-02-15T19:47:39.707Z,3.52
2019-02-15T19:50:14.766Z,3.53
2019-02-15T19:52:47.307Z,3.48
2019-02-15T19:55:18.152Z,3.46
2019-02-15T19:57:48.923Z,3.40
2019-02-15T20:00:19.533Z,3.38
2019-02-15T20:02:50.253Z,3.32
2019-02-15T20:05:21.018Z,3.34
2019-02-15T20:07:51.891Z,3.37
2019-02-15T20:10:25.289Z,3.38
2019-02-15T20:12:56.137Z,3.36
2019-02-15T20:15:27.319Z,3.35
2019-02-15T20:17:57.937Z,3.37
2019-02-15T20:20:28.902Z,3.44
2019-02-15T20:22:59.620Z,3.39
2019-02-15T20:25:30.591Z,3.31
2019-02-15T20:28:02.104Z,3.28
2019-02-15T20:30:35.008Z,3.35
2019-02-15T20:33:06.119Z,3.42
2019-02-15T20:35:37.006Z,3.58
2019-02-15T20:38:08.620Z,3.66
2019-02-15T20:40:39.961Z,3.72
2019-02-15T20:43:10.728Z,3.72
2019-02-15T20:45:41.690Z,3.82
2019-02-15T20:48:13.190Z,3.83
2019-02-15T20:50:44.617Z,3.87
2019-02-15T20:53:15.306Z,3.86
2019-02-15T20:55:46.085Z,3.73
2019-02-15T20:58:17.097Z,3.66
2019-02-15T21:00:48.250Z,3.60
2019-02-15T21:03:19.516Z,3.53
2019-02-15T21:05:50.353Z,3.54
2019-02-15T21:08:21.155Z,3.55
2019-02-15T21:10:55.018Z,3.53
2019-02-15T21:13:25.490Z,3.59
2019-02-15T21:15:58.963Z,3.47
2019-02-15T21:18:29.901Z,3.41
2019-02-15T21:21:01.508Z,3.38
2019-02-15T21:23:33.372Z,3.33
2019-02-15T21:26:05.922Z,3.29
2019-02-15T21:28:37.308Z,3.28
2019-02-15T21:31:08.219Z,3.27
2019-02-15T21:33:38.890Z,3.20
2019-02-15T21:36:10.052Z,3.17
2019-02-15T21:38:40.771Z,3.11
2019-02-15T21:41:11.380Z,3.07
2019-02-15T21:43:42.053Z,3.06
2019-02-15T21:46:12.819Z,2.98
2019-02-15T21:48:43.826Z,2.92
2019-02-15T21:51:16.740Z,2.99
2019-02-15T21:53:47.688Z,2.92
2019-02-15T21:56:24.584Z,2.85
2019-02-15T21:58:55.672Z,2.83
2019-02-15T22:01:26.580Z,2.80
2019-02-15T22:03:57.364Z,2.78
2019-02-15T22:06:30.657Z,2.72
2019-02-15T22:09:01.839Z,2.69
2019-02-15T22:11:34.624Z,2.67
2019-02-15T22:14:05.478Z,2.73
2019-02-15T22:16:36.737Z,2.71
2019-02-15T22:19:07.543Z,2.74
2019-02-15T22:21:38.107Z,2.77
2019-02-15T22:24:08.985Z,2.73
2019-02-15T22:26:40.371Z,2.64
2019-02-15T22:29:11.885Z,2.64
2019-02-15T22:31:42.988Z,2.59
2019-02-15T22:34:13.861Z,2.56
2019-02-15T22:36:44.705Z,2.53
2019-02-15T22:39:15.791Z,2.50
2019-02-15T22:41:46.862Z,2.49
2019-02-15T22:44:17.923Z,2.50
2019-02-15T22:46:48.853Z,2.48
2019-02-15T22:49:19.477Z,2.45
2019-02-15T22:51:50.879Z,2.43
2019-02-15T22:54:22.582Z,2.47
2019-02-15T22:56:53.807Z,2.43
2019-02-15T22:59:24.653Z,2.48
2019-02-15T23:01:55.298Z,2.47
2019-02-15T23:04:26.084Z,2.44
2019-02-15T23:06:57.267Z,2.41
2019-02-15T23:09:28.473Z,2.41
2019-02-15T23:11:59.295Z,2.38
2019-02-15T23:14:30.368Z,2.39
2019-02-15T23:17:01.182Z,2.39
2019-02-15T23:19:31.988Z,2.33
2019-02-15T23:22:02.592Z,2.33
2019-02-15T23:24:33.283Z,2.33
2019-02-15T23:27:04.128Z,2.34
2019-02-15T23:29:34.742Z,2.34
2019-02-15T23:32:05.503Z,2.29
2019-02-15T23:34:36.445Z,2.29
2019-02-15T23:37:07.349Z,2.28
2019-02-15T23:39:37.864Z,2.27
2019-02-15T23:42:08.641Z,2.20
2019-02-15T23:44:39.483Z,2.15
2019-02-15T23:47:10.161Z,2.13
2019-02-15T23:49:40.798Z,2.11
2019-02-15T23:52:11.898Z,2.15
2019-02-15T23:54:42.859Z,2.19
2019-02-15T23:57:13.550Z,2.14
2019-02-15T23:59:44.384Z,2.11
